sensor_id;sensor_type;location;lat;lon;timestamp;noise_LAeq;noise_LA_min;noise_LA_max;noise_LA01;noise_LA95
64996;Laerm;51545;51.568;6.998;2023-03-01T00:01:27;36.74;30.17;41.44;;
64996;Laerm;51545;51.568;6.998;2023-03-01T00:03:53;36.52;30.61;41.30;;
64996;Laerm;51545;51.568;6.998;2023-03-01T00:06:20;35.22;31.16;40.85;;
64996;Laerm;51545;51.568;6.998;2023-03-01T00:08:46;33.71;29.70;40.02;;
64996;Laerm;51545;51.568;6.998;2023-03-01T00:11:23;36.24;31.39;43.44;;
64996;Laerm;51545;51.568;6.998;2023-03-01T00:13:51;35.82;31.23;44.65;;
64996;Laerm;51545;51.568;6.998;2023-03-01T00:16:26;35.97;29.45;42.55;;
64996;Laerm;51545;51.568;6.998;2023-03-01T00:18:53;35.63;29.75;45.00;;
64996;Laerm;51545;51.568;6.998;2023-03-01T00:21:20;36.09;30.66;43.68;;
64996;Laerm;51545;51.568;6.998;2023-03-01T00:23:46;36.41;31.35;41.65;;
64996;Laerm;51545;51.568;6.998;2023-03-01T00:26:15;34.04;29.74;42.77;;
64996;Laerm;51545;51.568;6.998;2023-03-01T00:28:41;35.42;31.09;49.04;;
64996;Laerm;51545;51.568;6.998;2023-03-01T00:31:08;35.51;30.15;43.28;;
64996;Laerm;51545;51.568;6.998;2023-03-01T00:33:34;36.62;32.04;49.11;;
64996;Laerm;51545;51.568;6.998;2023-03-01T00:36:00;37.34;32.44;52.08;;
64996;Laerm;51545;51.568;6.998;2023-03-01T00:38:25;35.54;30.93;44.96;;
64996;Laerm;51545;51.568;6.998;2023-03-01T00:40:51;36.00;29.38;42.09;;
64996;Laerm;51545;51.568;6.998;2023-03-01T00:43:17;35.62;30.98;41.71;;
64996;Laerm;51545;51.568;6.998;2023-03-01T00:45:42;35.40;30.94;43.36;;
64996;Laerm;51545;51.568;6.998;2023-03-01T00:48:07;32.73;29.22;37.59;;
64996;Laerm;51545;51.568;6.998;2023-03-01T00:50:33;35.78;31.45;40.98;;
64996;Laerm;51545;51.568;6.998;2023-03-01T00:52:58;36.87;32.59;44.24;;
64996;Laerm;51545;51.568;6.998;2023-03-01T00:55:24;35.38;29.53;55.28;;
64996;Laerm;51545;51.568;6.998;2023-03-01T00:57:50;37.41;32.15;42.37;;
64996;Laerm;51545;51.568;6.998;2023-03-01T01:00:15;36.58;30.73;50.64;;
64996;Laerm;51545;51.568;6.998;2023-03-01T01:02:41;34.23;28.91;41.25;;
64996;Laerm;51545;51.568;6.998;2023-03-01T01:05:07;34.64;30.29;39.96;;
64996;Laerm;51545;51.568;6.998;2023-03-01T01:07:33;36.94;30.78;44.35;;
64996;Laerm;51545;51.568;6.998;2023-03-01T01:09:59;35.07;29.51;42.32;;
64996;Laerm;51545;51.568;6.998;2023-03-01T01:12:24;34.64;29.83;52.82;;
64996;Laerm;51545;51.568;6.998;2023-03-01T01:14:50;36.42;32.33;44.04;;
64996;Laerm;51545;51.568;6.998;2023-03-01T01:17:15;36.44;31.51;45.16;;
64996;Laerm;51545;51.568;6.998;2023-03-01T01:19:41;36.80;31.61;41.16;;
64996;Laerm;51545;51.568;6.998;2023-03-01T01:22:06;35.26;29.15;40.42;;
64996;Laerm;51545;51.568;6.998;2023-03-01T01:24:31;34.45;30.13;39.21;;
64996;Laerm;51545;51.568;6.998;2023-03-01T01:26:57;32.54;28.90;37.06;;
64996;Laerm;51545;51.568;6.998;2023-03-01T01:29:22;36.57;29.53;42.31;;
64996;Laerm;51545;51.568;6.998;2023-03-01T01:31:48;37.00;33.12;42.78;;
64996;Laerm;51545;51.568;6.998;2023-03-01T01:34:19;35.51;30.57;40.94;;
64996;Laerm;51545;51.568;6.998;2023-03-01T01:36:52;34.01;29.09;47.66;;
64996;Laerm;51545;51.568;6.998;2023-03-01T01:39:21;37.84;31.15;46.58;;
64996;Laerm;51545;51.568;6.998;2023-03-01T01:41:47;36.32;30.90;44.20;;
64996;Laerm;51545;51.568;6.998;2023-03-01T01:46:45;35.16;30.47;40.21;;
64996;Laerm;51545;51.568;6.998;2023-03-01T01:51:57;32.94;29.28;38.35;;
64996;Laerm;51545;51.568;6.998;2023-03-01T01:54:30;36.42;30.10;41.21;;
64996;Laerm;51545;51.568;6.998;2023-03-01T01:57:00;33.34;29.02;38.70;;
64996;Laerm;51545;51.568;6.998;2023-03-01T01:59:27;37.52;31.01;43.59;;
64996;Laerm;51545;51.568;6.998;2023-03-01T02:01:54;35.66;31.03;41.41;;
64996;Laerm;51545;51.568;6.998;2023-03-01T02:04:20;37.12;31.62;42.99;;
64996;Laerm;51545;51.568;6.998;2023-03-01T02:09:39;36.88;30.47;42.38;;
64996;Laerm;51545;51.568;6.998;2023-03-01T02:12:06;36.58;31.37;43.52;;
64996;Laerm;51545;51.568;6.998;2023-03-01T02:14:32;38.14;33.02;43.59;;
64996;Laerm;51545;51.568;6.998;2023-03-01T02:16:57;37.86;32.32;44.07;;
64996;Laerm;51545;51.568;6.998;2023-03-01T02:19:58;36.64;32.01;42.38;;
64996;Laerm;51545;51.568;6.998;2023-03-01T02:22:32;37.11;31.57;42.37;;
64996;Laerm;51545;51.568;6.998;2023-03-01T02:28:02;34.77;29.50;47.95;;
64996;Laerm;51545;51.568;6.998;2023-03-01T02:30:27;34.04;29.10;39.83;;
64996;Laerm;51545;51.568;6.998;2023-03-01T02:32:54;35.39;31.41;41.25;;
64996;Laerm;51545;51.568;6.998;2023-03-01T02:35:38;36.98;30.39;42.78;;
64996;Laerm;51545;51.568;6.998;2023-03-01T02:38:07;35.83;28.56;49.89;;
64996;Laerm;51545;51.568;6.998;2023-03-01T02:40:35;35.49;29.49;42.37;;
64996;Laerm;51545;51.568;6.998;2023-03-01T02:43:03;38.32;33.77;53.32;;
64996;Laerm;51545;51.568;6.998;2023-03-01T02:45:30;38.47;33.83;58.51;;
64996;Laerm;51545;51.568;6.998;2023-03-01T02:47:57;39.14;34.55;53.32;;
64996;Laerm;51545;51.568;6.998;2023-03-01T02:55:32;36.77;31.79;40.19;;
64996;Laerm;51545;51.568;6.998;2023-03-01T02:57:59;37.74;33.51;43.36;;
64996;Laerm;51545;51.568;6.998;2023-03-01T03:00:39;37.25;32.82;41.50;;
64996;Laerm;51545;51.568;6.998;2023-03-01T03:03:05;37.25;31.99;43.60;;
64996;Laerm;51545;51.568;6.998;2023-03-01T03:05:32;38.18;30.95;46.31;;
64996;Laerm;51545;51.568;6.998;2023-03-01T03:08:00;38.05;32.45;43.49;;
64996;Laerm;51545;51.568;6.998;2023-03-01T03:10:31;37.51;32.22;43.35;;
64996;Laerm;51545;51.568;6.998;2023-03-01T03:13:00;38.78;34.06;46.50;;
64996;Laerm;51545;51.568;6.998;2023-03-01T03:15:27;37.68;33.92;42.55;;
64996;Laerm;51545;51.568;6.998;2023-03-01T03:17:53;39.16;33.49;44.33;;
64996;Laerm;51545;51.568;6.998;2023-03-01T03:20:22;40.14;34.25;54.44;;
64996;Laerm;51545;51.568;6.998;2023-03-01T03:22:50;41.97;33.32;59.03;;
64996;Laerm;51545;51.568;6.998;2023-03-01T03:25:17;40.87;33.73;60.64;;
64996;Laerm;51545;51.568;6.998;2023-03-01T03:27:44;47.59;34.49;65.30;;
64996;Laerm;51545;51.568;6.998;2023-03-01T03:30:12;47.30;34.88;63.79;;
64996;Laerm;51545;51.568;6.998;2023-03-01T03:32:43;44.91;34.23;65.97;;
64996;Laerm;51545;51.568;6.998;2023-03-01T03:35:23;38.66;34.57;55.20;;
64996;Laerm;51545;51.568;6.998;2023-03-01T03:37:50;45.53;33.85;68.25;;
64996;Laerm;51545;51.568;6.998;2023-03-01T03:40:35;43.34;33.85;64.29;;
64996;Laerm;51545;51.568;6.998;2023-03-01T03:43:02;41.86;35.20;53.74;;
64996;Laerm;51545;51.568;6.998;2023-03-01T03:45:29;45.03;34.31;66.33;;
64996;Laerm;51545;51.568;6.998;2023-03-01T03:47:54;48.03;37.04;62.71;;
64996;Laerm;51545;51.568;6.998;2023-03-01T03:50:20;39.63;34.05;51.41;;
64996;Laerm;51545;51.568;6.998;2023-03-01T03:52:45;45.15;36.22;67.96;;
64996;Laerm;51545;51.568;6.998;2023-03-01T03:55:12;46.39;36.21;65.17;;
64996;Laerm;51545;51.568;6.998;2023-03-01T03:57:38;42.26;33.82;62.88;;
64996;Laerm;51545;51.568;6.998;2023-03-01T04:00:06;41.61;35.68;57.14;;
64996;Laerm;51545;51.568;6.998;2023-03-01T04:02:41;47.46;36.87;66.42;;
64996;Laerm;51545;51.568;6.998;2023-03-01T04:05:08;49.78;38.13;66.50;;
64996;Laerm;51545;51.568;6.998;2023-03-01T04:07:37;44.87;37.72;61.37;;
64996;Laerm;51545;51.568;6.998;2023-03-01T04:10:04;45.33;37.03;67.31;;
64996;Laerm;51545;51.568;6.998;2023-03-01T04:12:30;46.58;38.41;61.98;;
64996;Laerm;51545;51.568;6.998;2023-03-01T04:14:56;47.23;38.18;60.50;;
64996;Laerm;51545;51.568;6.998;2023-03-01T04:17:21;47.37;37.74;61.45;;
64996;Laerm;51545;51.568;6.998;2023-03-01T04:19:46;47.16;37.90;61.38;;
64996;Laerm;51545;51.568;6.998;2023-03-01T04:22:14;46.60;38.24;62.18;;
64996;Laerm;51545;51.568;6.998;2023-03-01T04:24:44;46.36;39.82;60.50;;
64996;Laerm;51545;51.568;6.998;2023-03-01T04:27:10;49.99;38.59;71.78;;
64996;Laerm;51545;51.568;6.998;2023-03-01T04:29:36;55.42;38.69;74.96;;
64996;Laerm;51545;51.568;6.998;2023-03-01T04:32:01;48.20;39.63;63.58;;
64996;Laerm;51545;51.568;6.998;2023-03-01T04:34:28;47.04;38.73;61.51;;
64996;Laerm;51545;51.568;6.998;2023-03-01T04:36:53;47.37;40.21;62.00;;
64996;Laerm;51545;51.568;6.998;2023-03-01T04:39:19;48.17;39.64;64.68;;
64996;Laerm;51545;51.568;6.998;2023-03-01T04:41:44;44.53;39.90;60.28;;
64996;Laerm;51545;51.568;6.998;2023-03-01T04:44:10;44.25;40.12;52.09;;
64996;Laerm;51545;51.568;6.998;2023-03-01T04:46:36;48.05;38.47;63.74;;
64996;Laerm;51545;51.568;6.998;2023-03-01T04:49:02;48.00;38.18;64.52;;
64996;Laerm;51545;51.568;6.998;2023-03-01T04:51:28;47.98;37.55;63.14;;
64996;Laerm;51545;51.568;6.998;2023-03-01T04:53:54;47.45;37.35;63.86;;
64996;Laerm;51545;51.568;6.998;2023-03-01T04:56:19;44.32;37.98;63.12;;
64996;Laerm;51545;51.568;6.998;2023-03-01T04:58:48;46.91;39.40;64.42;;
64996;Laerm;51545;51.568;6.998;2023-03-01T05:01:20;46.67;38.66;63.83;;
64996;Laerm;51545;51.568;6.998;2023-03-01T05:03:50;42.70;37.30;51.73;;
64996;Laerm;51545;51.568;6.998;2023-03-01T05:06:18;43.00;39.61;52.60;;
64996;Laerm;51545;51.568;6.998;2023-03-01T05:08:44;42.98;38.73;53.30;;
64996;Laerm;51545;51.568;6.998;2023-03-01T05:11:10;43.36;39.91;50.82;;
64996;Laerm;51545;51.568;6.998;2023-03-01T05:13:37;42.57;38.37;51.11;;
64996;Laerm;51545;51.568;6.998;2023-03-01T05:16:04;42.67;38.88;49.49;;
64996;Laerm;51545;51.568;6.998;2023-03-01T05:18:31;42.75;39.08;54.78;;
64996;Laerm;51545;51.568;6.998;2023-03-01T05:21:04;43.05;38.69;63.82;;
64996;Laerm;51545;51.568;6.998;2023-03-01T05:23:32;43.42;38.86;58.57;;
64996;Laerm;51545;51.568;6.998;2023-03-01T05:25:59;42.98;37.97;55.40;;
64996;Laerm;51545;51.568;6.998;2023-03-01T05:28:25;42.87;38.32;52.94;;
64996;Laerm;51545;51.568;6.998;2023-03-01T05:30:51;43.61;37.74;61.90;;
64996;Laerm;51545;51.568;6.998;2023-03-01T05:33:17;43.33;39.76;51.24;;
64996;Laerm;51545;51.568;6.998;2023-03-01T05:35:45;42.52;39.27;48.36;;
64996;Laerm;51545;51.568;6.998;2023-03-01T05:38:11;43.03;38.80;53.47;;
64996;Laerm;51545;51.568;6.998;2023-03-01T05:40:38;43.67;39.60;55.88;;
64996;Laerm;51545;51.568;6.998;2023-03-01T05:43:04;47.83;39.82;69.94;;
64996;Laerm;51545;51.568;6.998;2023-03-01T05:45:31;43.58;39.06;55.89;;
64996;Laerm;51545;51.568;6.998;2023-03-01T05:48:00;46.88;38.95;72.58;;
64996;Laerm;51545;51.568;6.998;2023-03-01T05:50:28;48.05;39.33;72.77;;
64996;Laerm;51545;51.568;6.998;2023-03-01T05:53:06;47.50;40.13;57.74;;
64996;Laerm;51545;51.568;6.998;2023-03-01T05:55:34;44.81;39.00;57.23;;
64996;Laerm;51545;51.568;6.998;2023-03-01T05:58:01;43.16;38.81;54.43;;
64996;Laerm;51545;51.568;6.998;2023-03-01T06:00:27;45.03;39.27;58.39;;
64996;Laerm;51545;51.568;6.998;2023-03-01T06:02:54;45.28;39.21;59.95;;
64996;Laerm;51545;51.568;6.998;2023-03-01T06:05:20;44.32;39.55;54.59;;
64996;Laerm;51545;51.568;6.998;2023-03-01T06:07:46;43.16;39.24;55.71;;
64996;Laerm;51545;51.568;6.998;2023-03-01T06:10:12;46.40;40.08;65.03;;
64996;Laerm;51545;51.568;6.998;2023-03-01T06:12:41;45.83;40.71;59.69;;
64996;Laerm;51545;51.568;6.998;2023-03-01T06:15:09;44.83;40.28;57.82;;
64996;Laerm;51545;51.568;6.998;2023-03-01T06:17:38;43.64;39.25;51.77;;
64996;Laerm;51545;51.568;6.998;2023-03-01T06:20:05;43.40;38.26;54.39;;
64996;Laerm;51545;51.568;6.998;2023-03-01T06:22:31;44.04;38.77;61.29;;
64996;Laerm;51545;51.568;6.998;2023-03-01T06:24:57;44.07;39.09;58.39;;
64996;Laerm;51545;51.568;6.998;2023-03-01T06:27:25;47.13;40.76;60.14;;
64996;Laerm;51545;51.568;6.998;2023-03-01T06:29:51;46.30;40.20;68.66;;
64996;Laerm;51545;51.568;6.998;2023-03-01T06:32:17;46.40;40.44;59.61;;
64996;Laerm;51545;51.568;6.998;2023-03-01T06:34:44;47.90;40.15;60.94;;
64996;Laerm;51545;51.568;6.998;2023-03-01T06:37:11;47.25;40.67;63.60;;
64996;Laerm;51545;51.568;6.998;2023-03-01T06:39:37;47.02;41.35;67.79;;
64996;Laerm;51545;51.568;6.998;2023-03-01T06:42:04;45.37;39.21;61.56;;
64996;Laerm;51545;51.568;6.998;2023-03-01T06:44:29;44.52;40.44;59.98;;
64996;Laerm;51545;51.568;6.998;2023-03-01T06:46:56;45.10;40.01;61.49;;
64996;Laerm;51545;51.568;6.998;2023-03-01T06:49:24;45.29;39.73;62.24;;
64996;Laerm;51545;51.568;6.998;2023-03-01T06:51:51;45.04;39.90;59.47;;
64996;Laerm;51545;51.568;6.998;2023-03-01T06:54:17;49.38;40.24;71.76;;
64996;Laerm;51545;51.568;6.998;2023-03-01T06:56:46;48.02;39.57;64.96;;
64996;Laerm;51545;51.568;6.998;2023-03-01T06:59:13;45.76;39.21;64.77;;
64996;Laerm;51545;51.568;6.998;2023-03-01T07:01:39;44.00;38.94;58.12;;
64996;Laerm;51545;51.568;6.998;2023-03-01T07:04:06;47.78;40.10;66.96;;
64996;Laerm;51545;51.568;6.998;2023-03-01T07:06:32;43.31;39.41;52.06;;
64996;Laerm;51545;51.568;6.998;2023-03-01T07:08:58;43.05;38.67;63.03;;
64996;Laerm;51545;51.568;6.998;2023-03-01T07:11:24;44.42;38.93;62.60;;
64996;Laerm;51545;51.568;6.998;2023-03-01T07:13:49;45.48;38.84;65.36;;
64996;Laerm;51545;51.568;6.998;2023-03-01T07:16:15;43.12;38.85;56.85;;
64996;Laerm;51545;51.568;6.998;2023-03-01T07:18:41;51.37;38.49;73.06;;
64996;Laerm;51545;51.568;6.998;2023-03-01T07:21:07;54.62;39.35;72.54;;
64996;Laerm;51545;51.568;6.998;2023-03-01T07:23:33;54.08;38.80;73.00;;
64996;Laerm;51545;51.568;6.998;2023-03-01T07:25:58;49.72;39.38;69.28;;
64996;Laerm;51545;51.568;6.998;2023-03-01T07:28:24;54.96;38.92;72.27;;
64996;Laerm;51545;51.568;6.998;2023-03-01T07:30:50;43.41;38.30;52.70;;
64996;Laerm;51545;51.568;6.998;2023-03-01T07:33:16;43.20;39.14;57.57;;
64996;Laerm;51545;51.568;6.998;2023-03-01T07:35:42;44.05;37.70;67.47;;
64996;Laerm;51545;51.568;6.998;2023-03-01T07:38:07;43.29;38.44;55.35;;
64996;Laerm;51545;51.568;6.998;2023-03-01T07:40:32;43.04;38.24;52.15;;
64996;Laerm;51545;51.568;6.998;2023-03-01T07:42:59;52.14;38.24;70.82;;
64996;Laerm;51545;51.568;6.998;2023-03-01T07:45:25;47.84;38.39;69.56;;
64996;Laerm;51545;51.568;6.998;2023-03-01T07:47:51;44.37;38.80;57.80;;
64996;Laerm;51545;51.568;6.998;2023-03-01T07:50:17;45.36;38.51;62.01;;
64996;Laerm;51545;51.568;6.998;2023-03-01T07:52:46;46.42;38.71;62.06;;
64996;Laerm;51545;51.568;6.998;2023-03-01T07:55:11;46.52;38.58;60.54;;
64996;Laerm;51545;51.568;6.998;2023-03-01T07:57:38;49.12;37.85;62.91;;
64996;Laerm;51545;51.568;6.998;2023-03-01T08:00:03;47.65;38.57;66.52;;
64996;Laerm;51545;51.568;6.998;2023-03-01T08:02:29;44.07;39.10;54.30;;
64996;Laerm;51545;51.568;6.998;2023-03-01T08:04:55;43.39;38.12;57.40;;
64996;Laerm;51545;51.568;6.998;2023-03-01T08:07:20;45.84;36.85;65.06;;
64996;Laerm;51545;51.568;6.998;2023-03-01T08:09:46;44.08;37.10;62.18;;
64996;Laerm;51545;51.568;6.998;2023-03-01T08:12:11;42.08;37.58;63.53;;
64996;Laerm;51545;51.568;6.998;2023-03-01T08:14:37;45.50;38.07;67.88;;
64996;Laerm;51545;51.568;6.998;2023-03-01T08:17:03;53.64;38.87;72.35;;
64996;Laerm;51545;51.568;6.998;2023-03-01T08:19:29;53.95;39.22;72.91;;
64996;Laerm;51545;51.568;6.998;2023-03-01T08:21:55;41.12;37.44;50.67;;
64996;Laerm;51545;51.568;6.998;2023-03-01T08:24:23;41.55;36.64;53.03;;
64996;Laerm;51545;51.568;6.998;2023-03-01T08:26:49;43.41;37.51;55.14;;
64996;Laerm;51545;51.568;6.998;2023-03-01T08:29:14;46.02;36.34;67.31;;
64996;Laerm;51545;51.568;6.998;2023-03-01T08:31:40;44.67;37.44;61.42;;
64996;Laerm;51545;51.568;6.998;2023-03-01T08:34:08;42.36;36.68;56.84;;
64996;Laerm;51545;51.568;6.998;2023-03-01T08:36:37;40.22;36.17;50.91;;
64996;Laerm;51545;51.568;6.998;2023-03-01T08:39:04;42.64;36.63;56.14;;
64996;Laerm;51545;51.568;6.998;2023-03-01T08:41:30;41.26;36.48;53.23;;
64996;Laerm;51545;51.568;6.998;2023-03-01T08:43:56;45.71;36.64;61.38;;
64996;Laerm;51545;51.568;6.998;2023-03-01T08:46:42;41.04;36.99;51.98;;
64996;Laerm;51545;51.568;6.998;2023-03-01T08:49:11;40.58;37.00;52.40;;
64996;Laerm;51545;51.568;6.998;2023-03-01T08:51:37;43.63;36.83;56.90;;
64996;Laerm;51545;51.568;6.998;2023-03-01T08:54:09;46.89;37.56;63.99;;
64996;Laerm;51545;51.568;6.998;2023-03-01T08:56:36;44.41;38.01;58.16;;
64996;Laerm;51545;51.568;6.998;2023-03-01T08:59:01;43.25;37.94;64.90;;
64996;Laerm;51545;51.568;6.998;2023-03-01T09:01:27;40.89;36.86;53.44;;
64996;Laerm;51545;51.568;6.998;2023-03-01T09:03:52;44.47;37.10;60.75;;
64996;Laerm;51545;51.568;6.998;2023-03-01T09:06:18;41.01;36.41;50.46;;
64996;Laerm;51545;51.568;6.998;2023-03-01T09:08:46;44.20;37.82;64.86;;
64996;Laerm;51545;51.568;6.998;2023-03-01T09:11:15;43.54;36.10;61.54;;
64996;Laerm;51545;51.568;6.998;2023-03-01T09:13:42;43.39;36.97;61.50;;
64996;Laerm;51545;51.568;6.998;2023-03-01T09:16:08;42.34;38.50;54.05;;
64996;Laerm;51545;51.568;6.998;2023-03-01T09:18:35;43.75;36.92;60.45;;
64996;Laerm;51545;51.568;6.998;2023-03-01T09:21:05;46.90;38.12;58.37;;
64996;Laerm;51545;51.568;6.998;2023-03-01T09:23:34;47.21;38.97;60.42;;
64996;Laerm;51545;51.568;6.998;2023-03-01T09:25:59;47.21;38.23;59.65;;
64996;Laerm;51545;51.568;6.998;2023-03-01T09:28:25;45.75;36.09;65.42;;
64996;Laerm;51545;51.568;6.998;2023-03-01T09:30:50;44.08;36.84;64.62;;
64996;Laerm;51545;51.568;6.998;2023-03-01T09:33:16;47.28;36.73;75.33;;
64996;Laerm;51545;51.568;6.998;2023-03-01T09:35:41;47.39;35.06;70.18;;
64996;Laerm;51545;51.568;6.998;2023-03-01T09:38:12;49.68;39.44;65.28;;
64996;Laerm;51545;51.568;6.998;2023-03-01T09:40:42;44.99;37.44;63.23;;
64996;Laerm;51545;51.568;6.998;2023-03-01T09:46:06;44.99;37.56;64.04;;
64996;Laerm;51545;51.568;6.998;2023-03-01T09:48:41;41.35;36.14;48.62;;
64996;Laerm;51545;51.568;6.998;2023-03-01T09:51:13;41.28;36.56;47.21;;
64996;Laerm;51545;51.568;6.998;2023-03-01T09:53:42;42.38;37.36;53.82;;
64996;Laerm;51545;51.568;6.998;2023-03-01T10:04:48;42.38;37.33;58.05;;
64996;Laerm;51545;51.568;6.998;2023-03-01T10:10:07;43.58;36.06;60.40;;
64996;Laerm;51545;51.568;6.998;2023-03-01T10:12:36;40.98;36.58;55.50;;
64996;Laerm;51545;51.568;6.998;2023-03-01T10:15:16;46.04;35.59;59.44;;
64996;Laerm;51545;51.568;6.998;2023-03-01T10:17:46;43.65;36.72;58.33;;
64996;Laerm;51545;51.568;6.998;2023-03-01T10:20:20;44.95;37.33;68.42;;
64996;Laerm;51545;51.568;6.998;2023-03-01T10:22:46;41.03;36.01;54.58;;
64996;Laerm;51545;51.568;6.998;2023-03-01T10:25:17;40.15;35.45;52.52;;
64996;Laerm;51545;51.568;6.998;2023-03-01T10:28:01;41.35;35.69;55.02;;
64996;Laerm;51545;51.568;6.998;2023-03-01T10:30:39;40.51;35.90;51.95;;
64996;Laerm;51545;51.568;6.998;2023-03-01T10:33:27;42.36;36.35;61.39;;
64996;Laerm;51545;51.568;6.998;2023-03-01T10:35:54;45.77;34.77;60.47;;
64996;Laerm;51545;51.568;6.998;2023-03-01T10:38:20;42.07;35.85;54.80;;
64996;Laerm;51545;51.568;6.998;2023-03-01T10:40:55;41.29;36.49;55.63;;
64996;Laerm;51545;51.568;6.998;2023-03-01T10:43:25;42.51;36.97;57.93;;
64996;Laerm;51545;51.568;6.998;2023-03-01T10:45:52;41.00;35.78;53.91;;
64996;Laerm;51545;51.568;6.998;2023-03-01T10:48:26;40.24;34.76;54.49;;
64996;Laerm;51545;51.568;6.998;2023-03-01T10:53:35;44.69;37.24;57.54;;
64996;Laerm;51545;51.568;6.998;2023-03-01T10:56:10;45.43;35.21;69.67;;
64996;Laerm;51545;51.568;6.998;2023-03-01T10:58:38;46.57;35.79;67.64;;
64996;Laerm;51545;51.568;6.998;2023-03-01T11:01:26;41.48;34.77;65.40;;
64996;Laerm;51545;51.568;6.998;2023-03-01T11:06:35;44.30;34.35;60.15;;
64996;Laerm;51545;51.568;6.998;2023-03-01T11:11:41;39.04;35.26;49.13;;
64996;Laerm;51545;51.568;6.998;2023-03-01T11:14:16;39.32;35.20;50.63;;
64996;Laerm;51545;51.568;6.998;2023-03-01T11:16:46;41.62;36.41;63.20;;
64996;Laerm;51545;51.568;6.998;2023-03-01T11:19:13;42.24;36.28;63.99;;
64996;Laerm;51545;51.568;6.998;2023-03-01T11:21:59;40.61;35.57;47.78;;
64996;Laerm;51545;51.568;6.998;2023-03-01T11:24:42;39.15;34.96;47.83;;
64996;Laerm;51545;51.568;6.998;2023-03-01T11:27:32;38.91;34.60;47.59;;
64996;Laerm;51545;51.568;6.998;2023-03-01T11:36:03;42.29;35.82;58.37;;
64996;Laerm;51545;51.568;6.998;2023-03-01T11:38:29;39.93;35.90;52.51;;
64996;Laerm;51545;51.568;6.998;2023-03-01T11:41:07;42.21;35.92;60.96;;
64996;Laerm;51545;51.568;6.998;2023-03-01T11:43:59;41.47;36.44;55.50;;
64996;Laerm;51545;51.568;6.998;2023-03-01T11:54:50;41.97;36.45;54.07;;
64996;Laerm;51545;51.568;6.998;2023-03-01T12:01:08;44.82;37.34;60.13;;
64996;Laerm;51545;51.568;6.998;2023-03-01T12:04:11;41.36;35.42;56.99;;
64996;Laerm;51545;51.568;6.998;2023-03-01T12:06:49;42.27;36.58;59.83;;
64996;Laerm;51545;51.568;6.998;2023-03-01T12:19:17;41.46;37.08;54.44;;
64996;Laerm;51545;51.568;6.998;2023-03-01T12:26:51;46.09;37.03;67.87;;
64996;Laerm;51545;51.568;6.998;2023-03-01T12:45:30;44.21;37.82;57.37;;
64996;Laerm;51545;51.568;6.998;2023-03-01T12:50:55;41.59;35.89;54.77;;
64996;Laerm;51545;51.568;6.998;2023-03-01T12:53:29;42.71;35.99;55.43;;
64996;Laerm;51545;51.568;6.998;2023-03-01T12:56:02;41.36;36.58;52.26;;
64996;Laerm;51545;51.568;6.998;2023-03-01T13:11:58;42.77;37.60;52.27;;
64996;Laerm;51545;51.568;6.998;2023-03-01T13:16:52;42.93;38.30;59.66;;
64996;Laerm;51545;51.568;6.998;2023-03-01T13:19:20;42.09;37.37;53.62;;
64996;Laerm;51545;51.568;6.998;2023-03-01T13:21:49;40.19;36.64;49.09;;
64996;Laerm;51545;51.568;6.998;2023-03-01T13:24:38;40.37;36.55;50.39;;
64996;Laerm;51545;51.568;6.998;2023-03-01T13:29:50;47.17;35.80;77.95;;
64996;Laerm;51545;51.568;6.998;2023-03-01T13:32:26;38.94;34.85;61.14;;
64996;Laerm;51545;51.568;6.998;2023-03-01T13:35:39;39.44;35.20;48.01;;
64996;Laerm;51545;51.568;6.998;2023-03-01T13:37:48;40.68;35.76;52.94;;
64996;Laerm;51545;51.568;6.998;2023-03-01T13:42:50;41.18;36.08;50.15;;
64996;Laerm;51545;51.568;6.998;2023-03-01T13:45:42;44.19;34.60;62.24;;
64996;Laerm;51545;51.568;6.998;2023-03-01T13:48:17;40.12;35.84;53.87;;
64996;Laerm;51545;51.568;6.998;2023-03-01T13:51:13;42.04;35.21;62.12;;
64996;Laerm;51545;51.568;6.998;2023-03-01T13:53:45;38.95;34.83;48.68;;
64996;Laerm;51545;51.568;6.998;2023-03-01T13:56:28;42.75;35.78;56.06;;
64996;Laerm;51545;51.568;6.998;2023-03-01T13:59:01;41.78;36.93;52.03;;
64996;Laerm;51545;51.568;6.998;2023-03-01T14:01:37;41.35;36.01;56.66;;
64996;Laerm;51545;51.568;6.998;2023-03-01T14:04:14;52.08;36.92;66.93;;
64996;Laerm;51545;51.568;6.998;2023-03-01T14:06:43;41.11;36.17;58.29;;
64996;Laerm;51545;51.568;6.998;2023-03-01T14:09:21;41.89;36.50;58.08;;
64996;Laerm;51545;51.568;6.998;2023-03-01T14:19:43;51.34;37.68;72.00;;
64996;Laerm;51545;51.568;6.998;2023-03-01T14:22:21;45.37;36.83;67.42;;
64996;Laerm;51545;51.568;6.998;2023-03-01T14:24:50;43.75;36.78;60.02;;
64996;Laerm;51545;51.568;6.998;2023-03-01T14:27:16;44.08;36.16;62.99;;
64996;Laerm;51545;51.568;6.998;2023-03-01T14:29:42;43.52;34.67;66.97;;
64996;Laerm;51545;51.568;6.998;2023-03-01T14:34:46;42.72;37.05;59.34;;
64996;Laerm;51545;51.568;6.998;2023-03-01T14:37:22;42.65;36.47;57.67;;
64996;Laerm;51545;51.568;6.998;2023-03-01T14:39:50;41.61;37.25;62.21;;
64996;Laerm;51545;51.568;6.998;2023-03-01T14:42:16;42.69;37.21;62.31;;
64996;Laerm;51545;51.568;6.998;2023-03-01T14:44:46;42.30;38.10;53.89;;
64996;Laerm;51545;51.568;6.998;2023-03-01T14:47:16;41.03;37.44;55.40;;
64996;Laerm;51545;51.568;6.998;2023-03-01T14:49:45;41.04;36.54;54.41;;
64996;Laerm;51545;51.568;6.998;2023-03-01T14:52:22;41.78;36.23;55.58;;
64996;Laerm;51545;51.568;6.998;2023-03-01T14:54:52;42.35;36.37;64.15;;
64996;Laerm;51545;51.568;6.998;2023-03-01T14:57:25;40.87;35.08;53.85;;
64996;Laerm;51545;51.568;6.998;2023-03-01T14:59:53;41.75;34.66;55.72;;
64996;Laerm;51545;51.568;6.998;2023-03-01T15:02:23;40.39;36.57;47.37;;
64996;Laerm;51545;51.568;6.998;2023-03-01T15:04:52;41.76;36.58;53.68;;
64996;Laerm;51545;51.568;6.998;2023-03-01T15:07:23;42.01;36.94;60.79;;
64996;Laerm;51545;51.568;6.998;2023-03-01T15:09:52;41.90;36.58;51.72;;
64996;Laerm;51545;51.568;6.998;2023-03-01T15:14:52;40.88;35.53;56.13;;
64996;Laerm;51545;51.568;6.998;2023-03-01T15:17:31;42.16;37.35;55.58;;
64996;Laerm;51545;51.568;6.998;2023-03-01T15:19:58;47.70;36.77;77.24;;
64996;Laerm;51545;51.568;6.998;2023-03-01T15:22:25;45.45;37.45;74.55;;
64996;Laerm;51545;51.568;6.998;2023-03-01T15:24:52;41.29;36.61;49.89;;
64996;Laerm;51545;51.568;6.998;2023-03-01T15:27:24;40.85;35.36;55.29;;
64996;Laerm;51545;51.568;6.998;2023-03-01T15:29:57;42.74;36.09;56.94;;
64996;Laerm;51545;51.568;6.998;2023-03-01T15:32:32;43.06;36.52;57.12;;
64996;Laerm;51545;51.568;6.998;2023-03-01T15:34:59;43.28;36.20;58.86;;
64996;Laerm;51545;51.568;6.998;2023-03-01T15:40:21;50.76;37.41;77.92;;
64996;Laerm;51545;51.568;6.998;2023-03-01T15:42:50;40.96;36.68;55.15;;
64996;Laerm;51545;51.568;6.998;2023-03-01T15:47:54;42.94;35.48;62.56;;
64996;Laerm;51545;51.568;6.998;2023-03-01T15:50:36;46.24;36.98;65.21;;
64996;Laerm;51545;51.568;6.998;2023-03-01T15:53:08;43.12;37.80;56.16;;
64996;Laerm;51545;51.568;6.998;2023-03-01T15:55:38;43.66;38.29;62.71;;
64996;Laerm;51545;51.568;6.998;2023-03-01T15:58:18;42.34;37.49;54.88;;
64996;Laerm;51545;51.568;6.998;2023-03-01T16:00:47;42.35;37.21;54.77;;
64996;Laerm;51545;51.568;6.998;2023-03-01T16:03:15;41.59;37.06;54.07;;
64996;Laerm;51545;51.568;6.998;2023-03-01T16:05:48;43.99;36.02;64.06;;